Time;durP1;ratioP1;P1;durP2;ratioP2;P2;SDS_P1;SDS_P2;PMS_P1;PMS_P2;Temp;Humidity;BMP_temperature;BMP_pressure;BME280_temperature;BME280_humidity;BME280_pressure;Samples;Min_cycle;Max_cycle;Signal;HPM_P1;HPM_P2
2022/06/15 00:01:49;;;;;;;3.88;1.50;;;;;;;19.44;52.48;99976.44;4988012;28;20025;-84
2022/06/15 00:04:15;;;;;;;2.55;1.55;;;;;;;19.38;52.63;99977.19;4985779;28;20018;-84
2022/06/15 00:06:41;;;;;;;4.95;1.40;;;;;;;19.35;52.96;99974.88;4990627;28;20033;-84
2022/06/15 00:09:08;;;;;;;2.42;1.58;;;;;;;19.30;52.87;99966.47;4989894;28;20021;-84
2022/06/15 00:11:36;;;;;;;2.33;1.60;;;;;;;19.33;52.86;99969.66;4995287;28;20024;-84
2022/06/15 00:14:12;;;;;;;;;;;;;;;19.31;52.11;99968.16;5008549;28;20067;-85
2022/06/15 00:16:37;;;;;;;3.80;1.77;;;;;;;19.31;52.43;99960.03;4994331;28;19909;-85
2022/06/15 00:19:04;;;;;;;4.88;1.85;;;;;;;19.27;52.23;99965.00;4984821;28;20112;-84
2022/06/15 00:21:30;;;;;;;3.55;1.95;;;;;;;19.28;52.56;99958.53;5014934;28;20030;-84
2022/06/15 00:23:57;;;;;;;3.65;1.88;;;;;;;19.21;53.07;99967.66;4985888;28;20476;-84
2022/06/15 00:26:23;;;;;;;2.85;1.90;;;;;;;19.19;52.84;99959.72;4994412;28;20467;-87
2022/06/15 00:28:49;;;;;;;3.85;1.95;;;;;;;19.17;53.23;99961.78;4997848;28;20026;-84
2022/06/15 00:31:14;;;;;;;3.67;1.63;;;;;;;19.05;52.79;99956.03;4990817;28;20075;-84
2022/06/15 00:33:40;;;;;;;3.75;1.70;;;;;;;19.07;53.65;99962.09;4986476;28;20025;-84
2022/06/15 00:36:12;;;;;;;3.63;1.80;;;;;;;19.09;53.10;99951.91;5026190;28;20025;-84
2022/06/15 00:38:40;;;;;;;2.67;1.50;;;;;;;19.09;53.58;99957.31;5003858;28;20029;-84
2022/06/15 00:41:07;;;;;;;3.97;1.73;;;;;;;19.02;53.74;99950.16;5002084;28;20106;-84
2022/06/15 00:43:45;;;;;;;3.25;2.00;;;;;;;18.99;53.94;99956.81;4981959;28;20059;-84
2022/06/15 00:46:31;;;;;;;3.10;2.00;;;;;;;18.94;53.62;99953.84;5006936;28;20029;-84
2022/06/15 00:49:06;;;;;;;2.90;1.83;;;;;;;18.97;53.40;99948.03;5018874;28;20112;-84
2022/06/15 00:51:32;;;;;;;2.72;1.63;;;;;;;18.98;53.36;99946.16;4986798;28;20031;-86
2022/06/15 00:53:58;;;;;;;4.78;1.95;;;;;;;19.05;53.47;99942.47;4994308;28;20052;-84
2022/06/15 00:56:25;;;;;;;3.03;1.80;;;;;;;19.01;52.87;99938.47;4992056;28;20053;-86
2022/06/15 00:58:53;;;;;;;4.75;1.75;;;;;;;19.01;53.57;99934.94;5008603;28;20116;-86
2022/06/15 01:01:22;;;;;;;3.87;1.83;;;;;;;18.97;53.95;99939.06;5002822;28;20026;-84
2022/06/15 01:03:49;;;;;;;3.95;1.75;;;;;;;18.96;53.68;99930.09;4986874;28;20160;-85
2022/06/15 01:06:37;;;;;;;4.40;1.70;;;;;;;18.91;53.95;99932.50;4986334;28;20530;-84
2022/06/15 01:09:13;;;;;;;3.88;1.92;;;;;;;18.95;53.58;99924.84;4992192;28;20164;-85
2022/06/15 01:11:49;;;;;;;2.78;1.95;;;;;;;18.87;53.98;99925.78;4988155;28;20030;-85
2022/06/15 01:14:39;;;;;;;3.45;2.08;;;;;;;18.83;53.55;99921.78;5022189;28;20021;-85
2022/06/15 01:17:26;;;;;;;4.07;2.00;;;;;;;18.78;54.42;99924.25;5021727;28;20077;-84
2022/06/15 01:20:16;;;;;;;3.90;1.90;;;;;;;18.77;54.13;99923.41;5021979;28;20041;-84
2022/06/15 01:22:51;;;;;;;3.65;2.28;;;;;;;18.78;53.77;99924.25;4983976;28;20054;-85
2022/06/15 01:25:25;;;;;;;3.70;1.98;;;;;;;18.77;53.68;99927.97;5019541;28;20476;-88
2022/06/15 01:28:24;;;;;;;4.07;2.50;;;;;;;18.75;53.60;99913.78;4990262;28;20080;-85
2022/06/15 01:31:30;;;;;;;3.95;2.38;;;;;;;18.69;54.57;99918.09;5017295;28;20066;-85
2022/06/15 01:34:15;;;;;;;4.30;2.35;;;;;;;18.66;54.21;99915.78;4982771;28;20022;-85
2022/06/15 01:36:49;;;;;;;4.55;3.20;;;;;;;18.62;54.10;99919.06;5003156;28;20241;-84
2022/06/15 01:39:27;;;;;;;5.78;3.15;;;;;;;18.56;54.39;99905.22;5018897;28;20468;-84
2022/06/15 01:42:09;;;;;;;6.73;3.00;;;;;;;18.54;54.35;99910.00;4984359;28;20578;-84
2022/06/15 01:44:38;;;;;;;4.97;2.80;;;;;;;18.61;54.31;99909.22;4999744;28;20100;-84
2022/06/15 01:47:04;;;;;;;;;;;;;;;18.63;54.51;99908.03;5025338;28;20022;-85
2022/06/15 01:49:43;;;;;;;3.25;2.30;;;;;;;18.51;54.06;99907.66;4988791;28;20008;-83
2022/06/15 01:52:11;;;;;;;4.50;2.80;;;;;;;18.45;54.41;99913.00;4985855;28;20108;-83
2022/06/15 01:54:40;;;;;;;7.65;2.78;;;;;;;18.43;54.95;99907.75;4982222;28;20026;-84
2022/06/15 01:57:08;;;;;;;5.22;2.88;;;;;;;18.44;55.69;99905.88;4988094;28;20061;-84
2022/06/15 01:59:47;;;;;;;5.38;2.80;;;;;;;18.47;54.95;99902.81;5005588;28;20120;-85
2022/06/15 02:02:20;;;;;;;5.88;2.90;;;;;;;18.44;55.13;99904.00;4997415;28;20041;-84
2022/06/15 02:05:20;;;;;;;4.13;2.65;;;;;;;18.27;55.63;99907.13;5013822;28;20030;-84
2022/06/15 02:07:50;;;;;;;3.97;2.70;;;;;;;18.06;55.79;99903.31;4958491;28;20125;-84
2022/06/15 02:10:24;;;;;;;4.18;2.63;;;;;;;17.96;56.47;99912.72;4975780;28;20034;-84
2022/06/15 02:12:54;;;;;;;4.65;2.53;;;;;;;18.12;55.98;99899.03;4982213;28;20022;-83
2022/06/15 02:15:25;;;;;;;5.63;2.90;;;;;;;18.20;55.40;99904.34;5004806;28;20132;-86
2022/06/15 02:17:51;;;;;;;4.10;2.55;;;;;;;18.18;55.72;99904.53;4995571;28;20022;-85
2022/06/15 02:20:21;;;;;;;3.83;2.72;;;;;;;18.09;55.31;99904.81;5000371;28;20060;-88
2022/06/15 02:22:48;;;;;;;5.97;2.90;;;;;;;18.11;55.68;99905.47;4988034;28;20085;-84
2022/06/15 02:25:16;;;;;;;4.55;2.90;;;;;;;18.15;55.58;99898.66;4987439;28;20475;-85
2022/06/15 02:27:42;;;;;;;5.03;2.80;;;;;;;18.10;55.75;99896.50;5004735;28;20167;-84
2022/06/15 02:30:12;;;;;;;4.55;2.67;;;;;;;18.10;55.69;99891.09;4983521;28;20575;-85
2022/06/15 02:32:41;;;;;;;4.95;3.00;;;;;;;18.11;55.64;99898.19;4986350;28;20487;-87
2022/06/15 02:35:07;;;;;;;4.70;2.70;;;;;;;18.15;55.62;99887.81;5018243;28;20029;-88
2022/06/15 02:37:32;;;;;;;3.83;2.42;;;;;;;18.10;55.43;99891.09;4986840;28;20026;-86
2022/06/15 02:39:57;;;;;;;3.47;2.58;;;;;;;18.01;55.86;99886.81;4996236;28;20483;-84
2022/06/15 02:42:32;;;;;;;5.22;2.65;;;;;;;18.01;55.11;99885.97;5025523;28;20058;-83
2022/06/15 02:45:00;;;;;;;3.00;2.35;;;;;;;18.05;55.59;99890.81;4996623;28;20032;-83
2022/06/15 02:47:29;;;;;;;5.28;3.00;;;;;;;18.08;55.91;99886.91;5011133;28;20032;-84
2022/06/15 02:49:54;;;;;;;3.00;2.30;;;;;;;18.07;55.36;99887.94;5007334;28;20042;-84
2022/06/15 02:52:22;;;;;;;3.85;2.70;;;;;;;18.11;55.68;99881.94;4991152;28;20052;-84
2022/06/15 02:54:50;;;;;;;3.38;2.70;;;;;;;18.10;56.35;99882.97;4988548;28;20041;-85
2022/06/15 02:57:16;;;;;;;4.60;2.80;;;;;;;18.07;56.49;99888.78;4983893;28;20505;-86
2022/06/15 02:59:42;;;;;;;4.90;2.92;;;;;;;18.03;55.46;99879.34;5008139;28;20084;-85
2022/06/15 03:02:07;;;;;;;3.42;2.45;;;;;;;17.98;55.79;99884.50;5007158;28;20053;-85
2022/06/15 03:04:33;;;;;;;3.55;2.30;;;;;;;17.83;56.09;99879.06;4991125;28;20029;-84
2022/06/15 03:06:58;;;;;;;3.78;2.58;;;;;;;17.80;55.60;99876.72;5010640;28;20036;-84
2022/06/15 03:09:24;;;;;;;3.88;2.47;;;;;;;17.77;56.64;99889.78;5008787;28;20048;-85
2022/06/15 03:11:50;;;;;;;5.25;3.00;;;;;;;17.82;56.01;99881.94;4986707;28;20025;-86
2022/06/15 03:14:16;;;;;;;4.30;2.42;;;;;;;17.77;55.97;99890.63;4987936;28;20026;-84
2022/06/15 03:16:43;;;;;;;4.07;2.40;;;;;;;17.65;56.57;99889.38;4991791;28;20123;-84
2022/06/15 03:19:12;;;;;;;5.80;2.83;;;;;;;17.69;57.29;99884.47;4993118;28;20491;-85
2022/06/15 03:21:38;;;;;;;5.20;2.50;;;;;;;17.68;55.93;99886.31;4997620;28;20032;-84
2022/06/15 03:24:04;;;;;;;6.15;2.88;;;;;;;17.70;56.50;99884.28;4986709;28;20042;-84
2022/06/15 03:26:29;;;;;;;4.00;3.00;;;;;;;17.74;56.84;99879.34;4988566;28;20024;-84
2022/06/15 03:28:54;;;;;;;4.57;2.60;;;;;;;17.65;56.91;99885.81;5005138;28;20096;-84
2022/06/15 03:31:20;;;;;;;5.88;3.17;;;;;;;17.67;55.94;99883.81;4987947;28;20132;-83
2022/06/15 03:33:45;;;;;;;5.10;3.05;;;;;;;17.73;56.59;99883.91;4988910;28;20025;-84
2022/06/15 03:36:10;;;;;;;5.15;3.20;;;;;;;17.72;56.54;99881.38;4985557;28;20033;-85
2022/06/15 03:38:36;;;;;;;5.07;3.30;;;;;;;17.75;57.00;99889.97;5010031;28;20029;-84
2022/06/15 03:41:01;;;;;;;5.35;3.13;;;;;;;17.72;56.93;99890.34;5006608;28;20117;-84
2022/06/15 03:43:26;;;;;;;4.63;3.33;;;;;;;17.61;56.80;99888.91;4984477;28;20088;-84
2022/06/15 03:45:52;;;;;;;4.47;2.85;;;;;;;17.53;57.25;99891.69;4986377;28;20033;-85
2022/06/15 03:48:17;;;;;;;4.70;2.95;;;;;;;17.37;57.23;99894.53;4994978;28;20085;-84
2022/06/15 03:50:43;;;;;;;4.13;2.72;;;;;;;17.23;57.75;99898.88;4989086;28;20510;-84
2022/06/15 03:53:09;;;;;;;3.72;2.92;;;;;;;17.44;57.86;99886.53;4990757;28;20084;-85
2022/06/15 03:55:35;;;;;;;4.25;3.20;;;;;;;17.52;57.56;99898.13;4985938;28;20025;-84
2022/06/15 03:58:00;;;;;;;5.22;2.78;;;;;;;17.54;57.11;99898.78;4989825;28;20036;-85
2022/06/15 04:00:28;;;;;;;4.43;3.00;;;;;;;17.39;57.52;99903.31;4980107;28;20014;-84
2022/06/15 04:02:53;;;;;;;4.00;2.80;;;;;;;17.52;57.46;99900.00;4985154;28;20034;-86
2022/06/15 04:05:25;;;;;;;4.57;3.33;;;;;;;17.50;57.28;99893.91;5008131;28;20426;-86
2022/06/15 04:10:35;;;;;;;4.90;3.40;;;;;;;17.47;57.69;99896.97;5019498;28;20486;-86
2022/06/15 04:13:01;;;;;;;4.82;3.17;;;;;;;17.45;58.60;99899.03;4988051;28;20029;-85
2022/06/15 04:15:26;;;;;;;6.18;3.22;;;;;;;17.30;58.06;99897.13;4988504;28;20049;-85
2022/06/15 04:17:51;;;;;;;3.65;2.88;;;;;;;17.33;58.40;99904.03;5011060;28;20040;-86
2022/06/15 04:20:31;;;;;;;4.30;3.08;;;;;;;17.47;58.74;99905.91;4981518;28;20040;-86
2022/06/15 04:22:57;;;;;;;4.90;3.17;;;;;;;17.47;58.36;99894.28;5002094;28;20042;-86
2022/06/15 04:25:22;;;;;;;5.22;3.15;;;;;;;17.51;57.95;99904.56;5009539;28;20052;-86
2022/06/15 04:27:47;;;;;;;3.78;3.03;;;;;;;17.51;57.77;99909.97;4985358;28;20036;-86
2022/06/15 04:30:13;;;;;;;5.07;3.35;;;;;;;17.49;57.73;99913.84;4987385;28;20026;-86
2022/06/15 04:32:39;;;;;;;4.72;3.28;;;;;;;17.50;58.15;99899.31;4982926;28;20032;-86
2022/06/15 04:35:05;;;;;;;6.10;3.33;;;;;;;17.48;57.72;99901.34;4998013;28;20034;-86
2022/06/15 04:37:30;;;;;;;5.22;3.40;;;;;;;17.48;59.16;99898.66;4985171;28;20029;-86
2022/06/15 04:39:55;;;;;;;5.65;3.45;;;;;;;17.49;58.12;99906.59;4985907;28;20060;-86
2022/06/15 04:42:21;;;;;;;4.97;3.50;;;;;;;17.50;58.25;99907.41;5003272;28;20646;-85
2022/06/15 04:44:46;;;;;;;4.88;3.80;;;;;;;17.53;58.09;99899.81;4984947;28;20492;-86
2022/06/15 04:47:11;;;;;;;5.53;3.42;;;;;;;17.53;57.88;99902.50;4982730;28;20510;-86
2022/06/15 04:49:37;;;;;;;4.68;3.50;;;;;;;17.53;58.59;99898.97;4982583;28;20026;-86
2022/06/15 04:52:02;;;;;;;6.10;3.78;;;;;;;17.57;58.32;99911.09;5000827;28;20022;-85
2022/06/15 04:54:27;;;;;;;4.50;3.70;;;;;;;17.58;58.47;99900.09;4999880;28;20033;-86
2022/06/15 04:56:53;;;;;;;6.97;4.25;;;;;;;17.58;58.25;99912.78;4988281;28;20025;-85
2022/06/15 04:59:18;;;;;;;6.13;3.83;;;;;;;17.63;58.58;99910.34;5003518;28;20116;-85
2022/06/15 05:01:43;;;;;;;5.95;4.18;;;;;;;17.62;58.51;99914.09;5003503;28;20418;-86
2022/06/15 05:04:09;;;;;;;7.40;3.85;;;;;;;17.44;60.10;99921.69;4993758;28;20029;-86
2022/06/15 05:06:37;;;;;;;8.10;3.97;;;;;;;17.44;59.55;99917.09;4992208;28;20032;-86
2022/06/15 05:09:07;;;;;;;6.50;4.13;;;;;;;17.47;60.46;99914.03;4993715;28;20028;-86
2022/06/15 05:11:32;;;;;;;5.50;4.13;;;;;;;17.55;59.66;99921.25;4993480;28;20048;-85
2022/06/15 05:13:58;;;;;;;7.20;4.38;;;;;;;17.63;58.80;99922.00;5008669;28;20470;-85
2022/06/15 05:16:23;;;;;;;6.10;4.28;;;;;;;17.68;58.95;99921.50;4985382;28;20109;-86
2022/06/15 05:18:49;;;;;;;6.05;4.40;;;;;;;17.69;58.44;99915.06;4988378;28;20137;-86
2022/06/15 05:21:14;;;;;;;9.23;5.28;;;;;;;17.69;58.41;99920.47;4999642;28;20048;-86
2022/06/15 05:23:39;;;;;;;7.78;4.50;;;;;;;17.74;58.72;99923.47;4999636;28;20046;-85
2022/06/15 05:26:05;;;;;;;6.45;4.20;;;;;;;17.75;59.29;99924.28;5009714;28;20373;-87
2022/06/15 05:28:30;;;;;;;6.97;4.53;;;;;;;17.78;58.92;99919.34;4992733;28;20506;-85
2022/06/15 05:31:06;;;;;;;7.63;4.40;;;;;;;17.75;59.03;99925.13;4991787;28;20286;-86
2022/06/15 05:33:35;;;;;;;5.68;4.05;;;;;;;17.82;59.35;99925.22;4979078;28;20030;-85
2022/06/15 05:36:02;;;;;;;6.97;4.65;;;;;;;17.82;60.08;99922.53;4989753;28;20104;-86
2022/06/15 05:38:33;;;;;;;11.80;5.40;;;;;;;17.79;60.11;99920.19;4985255;28;20164;-85
2022/06/15 05:40:59;;;;;;;7.47;4.40;;;;;;;17.81;60.11;99923.56;5000843;28;20109;-86
2022/06/15 05:43:24;;;;;;;9.13;4.53;;;;;;;17.82;60.34;99920.66;4989112;28;20120;-78
2022/06/15 05:45:49;;;;;;;8.23;4.40;;;;;;;17.80;59.65;99919.16;5018459;28;20063;-88
2022/06/15 05:48:15;;;;;;;10.23;4.35;;;;;;;17.84;59.37;99920.47;5004005;28;20416;-89
2022/06/15 05:50:40;;;;;;;9.18;4.20;;;;;;;17.86;59.36;99918.41;4985207;28;20050;-89
2022/06/15 05:53:05;;;;;;;8.60;4.38;;;;;;;17.85;59.38;99919.44;4986157;28;20029;-89
2022/06/15 05:55:31;;;;;;;7.53;4.10;;;;;;;17.81;59.29;99916.28;4993379;28;20048;-89
2022/06/15 05:57:56;;;;;;;8.05;4.40;;;;;;;17.90;59.25;99919.72;4982604;28;20384;-89
2022/06/15 06:00:25;;;;;;;6.40;3.92;;;;;;;18.01;59.10;99910.34;5000678;28;20034;-89
2022/06/15 06:02:51;;;;;;;7.20;4.78;;;;;;;18.03;59.34;99914.53;5004254;28;20017;-89
2022/06/15 06:05:16;;;;;;;7.85;4.55;;;;;;;17.98;59.34;99924.25;4984524;28;20083;-87
2022/06/15 06:07:41;;;;;;;7.88;4.15;;;;;;;17.92;59.87;99918.50;4987326;28;20384;-85
2022/06/15 06:10:07;;;;;;;7.70;4.85;;;;;;;17.97;59.53;99919.81;5003902;28;20037;-86
2022/06/15 06:12:33;;;;;;;8.98;4.55;;;;;;;17.96;60.18;99923.56;4988703;28;20041;-86
2022/06/15 06:14:58;;;;;;;7.03;4.38;;;;;;;18.06;59.91;99921.44;4986660;28;20034;-88
2022/06/15 06:17:23;;;;;;;7.20;4.88;;;;;;;17.98;60.48;99922.38;4986887;28;20411;-86
2022/06/15 06:19:49;;;;;;;7.60;4.32;;;;;;;18.08;60.04;99919.38;4988605;28;20121;-86
2022/06/15 06:22:14;;;;;;;9.20;6.40;;;;;;;18.13;60.51;99919.66;4987217;28;20753;-86
2022/06/15 06:24:40;;;;;;;7.47;5.32;;;;;;;18.18;60.20;99922.63;4984440;28;20037;-87
2022/06/15 06:27:06;;;;;;;10.02;4.95;;;;;;;18.19;59.94;99927.88;5006386;28;20041;-86
2022/06/15 06:29:31;;;;;;;8.25;4.55;;;;;;;18.24;60.23;99924.59;5005361;28;20037;-87
2022/06/15 06:31:58;;;;;;;7.18;4.60;;;;;;;18.23;60.24;99925.63;5008883;28;20026;-86
2022/06/15 06:34:24;;;;;;;6.90;4.32;;;;;;;18.26;60.54;99922.53;5011902;28;20597;-86
2022/06/15 06:36:50;;;;;;;11.43;4.90;;;;;;;18.26;60.50;99917.13;4987438;28;20029;-86
2022/06/15 06:39:19;;;;;;;8.20;4.95;;;;;;;18.32;61.14;99924.47;4986995;28;20033;-86
2022/06/15 06:41:45;;;;;;;8.57;4.45;;;;;;;18.35;61.02;99921.41;4996421;28;20128;-85
2022/06/15 06:44:11;;;;;;;7.70;4.97;;;;;;;18.34;61.29;99935.13;4987915;28;20176;-86
2022/06/15 06:46:37;;;;;;;6.45;4.40;;;;;;;18.40;60.61;99924.38;4989544;28;20041;-86
2022/06/15 06:49:05;;;;;;;6.88;4.50;;;;;;;18.43;61.35;99929.41;4986182;28;20108;-88
2022/06/15 06:51:30;;;;;;;6.55;4.18;;;;;;;18.48;60.31;99931.56;4987120;28;20093;-87
2022/06/15 06:53:56;;;;;;;8.80;4.95;;;;;;;18.48;60.97;99935.13;4985828;28;20501;-86
2022/06/15 06:56:21;;;;;;;8.13;4.00;;;;;;;18.52;60.85;99933.72;5008529;28;20611;-86
2022/06/15 06:58:47;;;;;;;7.32;4.20;;;;;;;18.52;60.80;99933.72;4988401;28;20025;-86
2022/06/15 07:01:12;;;;;;;7.03;4.28;;;;;;;18.48;61.33;99935.13;4986681;28;20025;-86
2022/06/15 07:03:37;;;;;;;10.48;4.63;;;;;;;18.51;61.85;99932.03;5004085;28;20084;-86
2022/06/15 07:06:07;;;;;;;6.30;4.00;;;;;;;18.50;61.59;99930.38;4986005;28;20080;-86
2022/06/15 07:08:33;;;;;;;8.00;3.80;;;;;;;18.56;61.20;99935.00;4988556;28;20369;-86
2022/06/15 07:10:58;;;;;;;7.15;4.10;;;;;;;18.54;60.67;99936.25;4993700;28;20025;-86
2022/06/15 07:13:24;;;;;;;6.63;4.47;;;;;;;18.55;61.30;99932.50;4989342;28;20064;-86
2022/06/15 07:15:49;;;;;;;11.10;4.32;;;;;;;18.58;61.20;99939.41;4987559;28;20038;-85
2022/06/15 07:18:15;;;;;;;7.40;4.03;;;;;;;18.68;60.72;99948.09;4985649;28;20037;-85
2022/06/15 07:20:40;;;;;;;5.82;4.47;;;;;;;18.67;61.00;99941.84;5020523;28;20041;-86
2022/06/15 07:23:06;;;;;;;9.73;4.78;;;;;;;18.71;60.72;99947.72;4987063;28;20451;-87
2022/06/15 07:25:31;;;;;;;7.97;4.45;;;;;;;18.69;61.40;99947.06;4983849;28;20033;-87
2022/06/15 07:27:57;;;;;;;6.72;4.10;;;;;;;18.70;60.93;99946.88;5001730;28;20054;-86
2022/06/15 07:30:24;;;;;;;5.68;3.80;;;;;;;18.74;61.09;99950.03;4983226;28;20080;-87
2022/06/15 07:32:50;;;;;;;7.63;4.10;;;;;;;18.73;61.75;99951.06;5004010;28;20030;-86
2022/06/15 07:35:23;;;;;;;5.50;3.80;;;;;;;18.73;62.12;99949.19;5004877;28;20025;-86
2022/06/15 07:37:49;;;;;;;10.02;4.93;;;;;;;18.74;62.30;99950.88;4995124;28;20034;-88
2022/06/15 07:40:15;;;;;;;8.15;4.60;;;;;;;18.73;62.33;99942.94;4986985;28;20029;-87
2022/06/15 07:42:41;;;;;;;7.90;4.60;;;;;;;18.77;62.33;99944.25;5004714;28;20030;-87
2022/06/15 07:45:08;;;;;;;7.47;4.40;;;;;;;18.72;62.17;99938.56;5015638;28;20498;-88
2022/06/15 07:50:17;;;;;;;6.32;4.50;;;;;;;18.89;62.62;99942.69;5007409;28;20036;-87
2022/06/15 07:52:45;;;;;;;8.35;4.22;;;;;;;18.93;61.96;99935.06;5003995;28;20038;-87
2022/06/15 07:55:12;;;;;;;9.90;4.40;;;;;;;18.96;61.64;99937.38;4986993;28;20172;-87
2022/06/15 07:57:37;;;;;;;6.47;3.50;;;;;;;18.96;61.64;99937.38;4996154;28;20099;-87
2022/06/15 08:00:08;;;;;;;5.78;3.75;;;;;;;19.00;62.88;99942.22;4986684;28;20041;-86
2022/06/15 08:02:34;;;;;;;9.48;4.35;;;;;;;18.95;62.70;99941.97;4987648;28;20041;-85
2022/06/15 08:04:59;;;;;;;8.35;4.05;;;;;;;18.89;63.08;99942.69;4989309;28;20025;-85
2022/06/15 08:07:24;;;;;;;7.78;4.22;;;;;;;18.96;62.64;99937.38;4985058;28;20033;-85
2022/06/15 08:09:50;;;;;;;12.48;4.68;;;;;;;18.93;62.39;99944.03;4986742;28;20052;-85
2022/06/15 08:12:16;;;;;;;7.07;4.78;;;;;;;18.90;61.64;99948.97;4984901;28;20026;-84
2022/06/15 08:14:50;;;;;;;7.43;4.88;;;;;;;18.90;61.63;99951.66;4984236;28;20084;-86
2022/06/15 08:17:28;;;;;;;8.45;4.78;;;;;;;18.94;62.38;99959.25;5003272;28;20029;-86
2022/06/15 08:20:07;;;;;;;9.98;4.78;;;;;;;19.00;62.04;99950.34;4998884;28;20083;-84
2022/06/15 08:22:34;;;;;;;10.73;4.72;;;;;;;19.00;62.18;99958.50;4999800;28;20084;-85
2022/06/15 08:25:00;;;;;;;6.00;4.30;;;;;;;19.07;61.72;99958.56;4983298;28;20030;-84
2022/06/15 08:27:26;;;;;;;7.97;4.75;;;;;;;19.02;60.61;99963.72;4989962;28;20480;-84
2022/06/15 08:29:51;;;;;;;7.93;4.30;;;;;;;19.02;60.88;99961.84;4988116;28;20047;-86
2022/06/15 08:32:18;;;;;;;7.25;4.05;;;;;;;19.09;60.86;99965.47;4988075;28;20096;-87
2022/06/15 08:34:44;;;;;;;7.55;4.25;;;;;;;19.11;60.58;99962.56;4982181;28;20136;-85
2022/06/15 08:37:13;;;;;;;6.72;4.25;;;;;;;19.13;61.42;99958.63;4988408;28;20079;-85
2022/06/15 08:39:39;;;;;;;7.65;4.03;;;;;;;19.17;61.24;99956.34;5019711;28;20026;-86
2022/06/15 08:42:48;;;;;;;8.90;4.60;;;;;;;19.19;62.08;99957.84;5022067;28;20084;-87
2022/06/15 08:45:36;;;;;;;5.82;4.07;;;;;;;19.16;62.01;99951.97;5002363;28;20452;-85
2022/06/15 08:48:27;;;;;;;7.10;3.80;;;;;;;19.22;61.39;99962.03;5010335;28;20044;-86
2022/06/15 08:50:58;;;;;;;9.63;3.67;;;;;;;19.21;61.00;99948.66;5013603;28;20063;-85
2022/06/15 08:53:34;;;;;;;5.50;3.72;;;;;;;19.24;61.21;99962.69;4993085;28;20018;-88
2022/06/15 08:56:10;;;;;;;5.10;2.95;;;;;;;19.29;61.48;99956.66;4998405;28;20052;-88
2022/06/15 08:58:45;;;;;;;9.40;4.45;;;;;;;19.35;60.98;99953.19;5003195;28;20032;-87
2022/06/15 09:01:36;;;;;;;7.25;3.45;;;;;;;19.45;61.08;99957.28;5019301;28;20028;-86
2022/06/15 09:04:20;;;;;;;7.00;3.70;;;;;;;19.41;61.67;99958.69;4982765;28;20496;-86
2022/06/15 09:07:01;;;;;;;10.85;3.58;;;;;;;19.42;62.47;99954.09;5023363;28;20048;-87
2022/06/15 09:09:57;;;;;;;8.18;3.85;;;;;;;19.44;61.38;99958.31;5000449;28;20059;-90
2022/06/15 09:12:52;;;;;;;7.18;3.30;;;;;;;19.53;61.98;99950.88;5019931;28;20036;-86
2022/06/15 09:15:56;;;;;;;12.70;4.20;;;;;;;19.57;62.12;99946.75;5016447;28;20025;-85
2022/06/15 09:18:43;;;;;;;8.63;4.40;;;;;;;19.55;62.70;99947.97;5001723;28;20128;-84
2022/06/15 09:21:20;;;;;;;8.55;4.10;;;;;;;19.54;62.72;99947.16;4997027;28;20034;-90
2022/06/15 09:23:50;;;;;;;8.00;3.85;;;;;;;19.57;63.19;99954.88;4984053;28;20042;-86
2022/06/15 09:26:31;;;;;;;7.88;3.85;;;;;;;19.59;62.77;99951.97;4985914;28;20460;-86
2022/06/15 09:29:04;;;;;;;6.75;3.90;;;;;;;19.54;61.93;99944.44;4991007;28;20026;-85
2022/06/15 09:31:49;;;;;;;8.95;4.10;;;;;;;19.62;61.86;99943.44;4992250;28;20034;-86
2022/06/15 09:34:20;;;;;;;7.30;3.33;;;;;;;19.65;62.48;99940.34;5002835;28;20369;-85
2022/06/15 09:36:52;;;;;;;5.90;3.72;;;;;;;19.67;62.25;99938.25;5000540;28;20414;-86
2022/06/15 09:39:19;;;;;;;8.60;3.53;;;;;;;19.77;61.56;99939.59;5018679;28;20030;-86
2022/06/15 09:41:50;;;;;;;7.07;3.88;;;;;;;19.78;60.47;99933.13;4981883;28;20363;-86
2022/06/15 09:44:34;;;;;;;7.22;3.50;;;;;;;19.79;60.87;99936.69;4998804;28;20431;-85
2022/06/15 09:47:28;;;;;;;8.23;3.38;;;;;;;19.86;59.88;99939.44;5017403;28;20026;-85
2022/06/15 09:50:03;;;;;;;6.18;3.30;;;;;;;19.81;59.16;99937.31;5016327;28;20029;-88
2022/06/15 09:52:58;;;;;;;7.60;3.00;;;;;;;19.77;60.15;99936.88;5003650;28;20037;-86
2022/06/15 09:55:34;;;;;;;5.95;3.05;;;;;;;19.84;60.49;99936.09;5012514;28;20034;-86
2022/06/15 09:58:01;;;;;;;5.15;3.03;;;;;;;19.86;59.16;99936.72;5020263;28;20340;-86
2022/06/15 10:00:26;;;;;;;6.68;3.10;;;;;;;19.88;58.72;99940.09;4987388;28;20063;-86
2022/06/15 10:02:56;;;;;;;2.80;2.30;;;;;;;19.86;59.01;99934.84;4985769;28;20044;-87
2022/06/15 10:05:30;;;;;;;6.85;2.85;;;;;;;19.95;59.83;99943.69;5009258;28;20076;-88
2022/06/15 10:07:57;;;;;;;6.07;3.00;;;;;;;19.97;58.83;99934.31;5023829;28;20033;-86
2022/06/15 10:10:40;;;;;;;4.78;2.78;;;;;;;20.06;58.42;99943.13;5006066;28;21016;-85
2022/06/15 10:13:29;;;;;;;5.40;3.00;;;;;;;20.07;57.71;99936.66;5001284;28;20022;-85
2022/06/15 10:16:16;;;;;;;5.32;2.53;;;;;;;20.05;57.04;99941.47;5012160;28;20061;-85
2022/06/15 10:18:44;;;;;;;5.72;2.60;;;;;;;20.08;57.38;99931.03;4985053;28;20140;-84
2022/06/15 10:21:12;;;;;;;5.95;2.95;;;;;;;20.11;57.44;99935.22;5001815;28;20029;-72
2022/06/15 10:23:49;;;;;;;3.80;2.55;;;;;;;20.12;57.59;99942.34;5020490;28;20060;-85
2022/06/15 10:26:50;;;;;;;5.57;2.60;;;;;;;20.17;58.06;99941.72;5001912;28;20038;-87
2022/06/15 10:29:15;;;;;;;6.03;2.40;;;;;;;20.15;57.45;99943.81;4997302;28;20036;-85
2022/06/15 10:31:42;;;;;;;5.28;2.80;;;;;;;20.20;56.18;99939.47;5021637;28;20045;-86
2022/06/15 10:34:19;;;;;;;6.30;2.58;;;;;;;20.23;55.27;99933.63;4995098;28;20053;-87
2022/06/15 10:36:51;;;;;;;6.00;2.50;;;;;;;20.19;55.21;99926.06;4989123;28;20040;-88
2022/06/15 10:39:22;;;;;;;6.53;2.53;;;;;;;20.22;55.74;99923.78;4985245;28;20029;-85
2022/06/15 10:41:49;;;;;;;3.90;1.90;;;;;;;20.26;56.18;99924.22;5005324;28;20049;-86
2022/06/15 10:44:27;;;;;;;6.25;2.55;;;;;;;20.24;54.77;99921.72;4989546;28;20396;-86
2022/06/15 10:47:06;;;;;;;4.32;2.35;;;;;;;20.27;56.30;99923.19;5462431;23;20032;-86
2022/06/15 10:49:41;;;;;;;6.53;2.47;;;;;;;20.37;56.19;99927.25;4991929;28;20037;-86
2022/06/15 10:52:42;;;;;;;6.90;2.30;;;;;;;20.37;55.64;99924.53;4988151;28;20037;-85
2022/06/15 11:04:07;;;;;;;3.95;1.90;;;;;;;20.48;56.26;99920.41;5007256;28;20087;-71
2022/06/15 11:06:38;;;;;;;5.03;2.20;;;;;;;20.50;55.84;99909.34;4994204;28;20017;-89
2022/06/15 11:09:06;;;;;;;6.60;3.00;;;;;;;20.55;55.85;99907.69;5002359;28;20022;-91
2022/06/15 11:11:34;;;;;;;4.50;2.40;;;;;;;20.62;55.47;99908.53;4989236;28;20116;-88
2022/06/15 11:14:07;;;;;;;2.60;1.95;;;;;;;20.58;56.07;99906.44;4989643;28;20505;-86
2022/06/15 11:19:21;;;;;;;5.18;2.08;;;;;;;20.63;54.77;99906.66;4988793;28;20467;-86
2022/06/15 11:21:56;;;;;;;6.47;2.40;;;;;;;20.65;53.71;99912.72;4982763;28;20392;-87
2022/06/15 11:24:39;;;;;;;6.97;1.95;;;;;;;20.66;55.42;99906.25;4976302;28;20018;-87
2022/06/15 11:27:10;;;;;;;3.95;2.13;;;;;;;20.69;55.28;99905.84;4995073;28;20034;-87
2022/06/15 11:29:48;;;;;;;4.43;2.30;;;;;;;20.77;54.02;99904.81;4968221;28;20078;-86
2022/06/15 11:32:17;;;;;;;4.70;2.00;;;;;;;20.84;55.10;99897.53;4991121;28;20041;-86
2022/06/15 11:35:11;;;;;;;4.90;2.00;;;;;;;20.80;55.42;99896.25;4992078;28;20058;-87
2022/06/15 11:37:46;;;;;;;3.90;2.00;;;;;;;20.83;54.86;99888.56;4950290;28;20036;-85
2022/06/15 11:40:28;;;;;;;5.18;2.10;;;;;;;20.84;54.85;99897.53;4982109;28;20041;-85
2022/06/15 11:42:54;;;;;;;4.15;2.10;;;;;;;20.89;54.54;99895.88;4997814;28;20083;-84
2022/06/15 11:45:38;;;;;;;4.38;1.90;;;;;;;21.05;53.52;99894.66;4964355;28;20038;-85
2022/06/15 11:48:10;;;;;;;5.68;2.10;;;;;;;21.06;53.33;99893.59;4983180;28;20050;-84
2022/06/15 11:51:00;;;;;;;3.92;2.00;;;;;;;21.13;53.49;99894.44;4985329;28;20439;-85
2022/06/15 11:53:29;;;;;;;6.93;2.30;;;;;;;21.23;53.28;99896.78;4968077;28;20027;-85
2022/06/15 11:56:10;;;;;;;6.70;2.25;;;;;;;21.33;51.59;99895.34;4965417;28;20545;-85
2022/06/15 11:58:53;;;;;;;4.15;1.73;;;;;;;21.35;50.78;99901.41;4981043;28;20042;-85
2022/06/15 12:01:41;;;;;;;3.90;2.00;;;;;;;21.29;51.02;99887.81;4983426;28;20026;-86
2022/06/15 12:04:32;;;;;;;6.90;1.90;;;;;;;21.25;52.08;99881.09;4988563;28;20026;-85
2022/06/15 12:07:26;;;;;;;5.63;2.10;;;;;;;21.25;52.69;99881.91;4988094;28;20049;-86
2022/06/15 12:10:29;;;;;;;3.95;2.00;;;;;;;21.35;50.57;99876.09;4995787;28;20030;-85